Time;durP1;ratioP1;P1;durP2;ratioP2;P2;SDS_P1;SDS_P2;PMS_P1;PMS_P2;Temp;Humidity;BMP_temperature;BMP_pressure;BME280_temperature;BME280_humidity;BME280_pressure;Samples;Min_cycle;Max_cycle;Signal;HPM_P1;HPM_P2
2024/01/08 00:01:50;;;;;;;14.75;5.85;;;;;;;;;;10336667;23;20047;-86
2024/01/08 00:05:53;;;;;;;4.63;3.40;;;;;;;;;;10354106;23;20016;-88
2024/01/08 00:14:05;;;;;;;20.77;6.80;;;;;;;;;;10312906;23;20369;-84
2024/01/08 00:18:09;;;;;;;;;;;;;;;;;;10337407;23;20068;-87
2024/01/08 00:22:12;;;;;;;18.73;7.30;;;;;;;;;;10340289;23;20298;-83
2024/01/08 00:26:15;;;;;;;9.27;4.55;;;;;;;;;;10340456;23;20016;-85
2024/01/08 00:34:34;;;;;;;16.65;8.73;;;;;;;;;;10289253;23;20410;-84
2024/01/08 00:38:37;;;;;;;15.77;7.43;;;;;;;;;;10289552;23;20016;-87
2024/01/08 00:42:40;;;;;;;12.70;6.93;;;;;;;;;;10289701;23;20017;-83
2024/01/08 00:46:48;;;;;;;8.35;4.43;;;;;;;;;;10262790;23;20463;-83
2024/01/08 00:50:54;;;;;;;6.18;3.70;;;;;;;;;;10262769;23;20031;-84
2024/01/08 00:55:03;;;;;;;7.18;4.22;;;;;;;;;;10262871;23;20020;-87
2024/01/08 00:59:06;;;;;;;5.85;2.95;;;;;;;;;;10262341;23;20085;-85
2024/01/08 01:03:09;;;;;;;19.20;6.88;;;;;;;;;;10290093;23;20050;-84
2024/01/08 01:07:13;;;;;;;10.18;5.30;;;;;;;;;;10262678;23;20023;-84
2024/01/08 01:11:16;;;;;;;9.50;4.80;;;;;;;;;;10288875;23;20032;-84
2024/01/08 01:15:20;;;;;;;11.68;5.10;;;;;;;;;;10262748;23;20404;-86
2024/01/08 01:19:23;;;;;;;13.88;6.65;;;;;;;;;;10289338;23;20016;-84
2024/01/08 01:23:28;;;;;;;6.88;4.22;;;;;;;;;;10262620;23;20476;-84
2024/01/08 01:27:31;;;;;;;11.73;5.35;;;;;;;;;;10289080;23;20520;-84
2024/01/08 01:31:34;;;;;;;10.65;5.97;;;;;;;;;;10289106;23;20349;-83
2024/01/08 01:35:36;;;;;;;19.80;8.07;;;;;;;;;;10296992;23;20024;-84
2024/01/08 01:39:41;;;;;;;25.98;10.52;;;;;;;;;;10288979;23;20016;-85
2024/01/08 01:43:44;;;;;;;17.73;6.70;;;;;;;;;;10288219;23;20099;-88
2024/01/08 01:52:23;;;;;;;11.80;6.43;;;;;;;;;;10390325;22;20055;-84
2024/01/08 02:00:38;;;;;;;11.82;5.75;;;;;;;;;;10330731;23;20048;-83
2024/01/08 02:04:43;;;;;;;10.32;6.15;;;;;;;;;;10382621;22;20035;-83
2024/01/08 02:08:46;;;;;;;17.92;6.68;;;;;;;;;;10389598;22;20452;-84
2024/01/08 02:12:50;;;;;;;12.38;6.45;;;;;;;;;;10389363;22;20016;-82
2024/01/08 02:16:54;;;;;;;12.13;5.80;;;;;;;;;;10388868;22;20364;-82
2024/01/08 02:20:57;;;;;;;13.70;6.97;;;;;;;;;;10362281;22;20468;-86
2024/01/08 02:25:05;;;;;;;11.05;5.00;;;;;;;;;;10362182;22;20452;-84
2024/01/08 02:29:09;;;;;;;11.15;4.95;;;;;;;;;;10362588;22;20051;-84
2024/01/08 02:33:12;;;;;;;13.05;6.30;;;;;;;;;;10388383;22;20522;-82
2024/01/08 02:37:14;;;;;;;10.00;4.20;;;;;;;;;;10388425;22;20020;-86
2024/01/08 02:41:19;;;;;;;9.02;4.72;;;;;;;;;;10361742;22;20073;-83
2024/01/08 02:45:22;;;;;;;18.55;7.13;;;;;;;;;;10388436;22;20020;-84
2024/01/08 02:49:25;;;;;;;8.88;4.22;;;;;;;;;;10388887;22;20406;-83
2024/01/08 02:53:27;;;;;;;9.85;5.55;;;;;;;;;;10388346;22;20015;-83
2024/01/08 02:57:33;;;;;;;9.05;4.00;;;;;;;;;;10387724;22;20024;-81
2024/01/08 03:01:37;;;;;;;16.73;6.13;;;;;;;;;;10405470;22;20024;-87
2024/01/08 03:05:40;;;;;;;12.18;6.32;;;;;;;;;;10361406;22;20026;-89
2024/01/08 03:09:44;;;;;;;6.35;4.57;;;;;;;;;;10360997;22;20020;-82
2024/01/08 03:13:48;;;;;;;7.22;4.47;;;;;;;;;;10388309;22;20022;-87
2024/01/08 03:17:51;;;;;;;8.50;3.67;;;;;;;;;;10361143;22;20026;-86
2024/01/08 03:21:54;;;;;;;15.32;6.90;;;;;;;;;;10361547;22;20089;-83
2024/01/08 03:25:57;;;;;;;11.73;5.20;;;;;;;;;;10360894;22;20027;-89
2024/01/08 03:30:02;;;;;;;10.60;5.40;;;;;;;;;;10361240;22;20015;-84
2024/01/08 03:34:06;;;;;;;9.73;4.75;;;;;;;;;;10387786;22;20019;-83
2024/01/08 03:38:09;;;;;;;2.92;2.58;;;;;;;;;;10387754;22;20022;-88
2024/01/08 03:42:12;;;;;;;12.65;6.05;;;;;;;;;;10361043;22;20455;-83
2024/01/08 03:46:17;;;;;;;7.95;5.18;;;;;;;;;;10387889;22;20069;-84
2024/01/08 03:50:20;;;;;;;5.85;4.43;;;;;;;;;;10387572;22;20099;-85
2024/01/08 03:54:23;;;;;;;11.02;4.93;;;;;;;;;;10360231;22;20023;-87
2024/01/08 03:58:26;;;;;;;12.00;5.78;;;;;;;;;;10386918;22;20098;-81
2024/01/08 04:02:32;;;;;;;12.65;6.60;;;;;;;;;;10387929;22;20019;-82
2024/01/08 04:11:07;;;;;;;16.73;4.18;;;;;;;;;;10333148;23;20050;-82
2024/01/08 04:15:13;;;;;;;11.70;6.38;;;;;;;;;;10353599;23;20449;-81
2024/01/08 04:19:17;;;;;;;12.43;4.93;;;;;;;;;;10388162;22;20905;-84
2024/01/08 04:23:20;;;;;;;8.93;4.95;;;;;;;;;;10387129;22;20479;-83
2024/01/08 04:27:23;;;;;;;8.38;4.07;;;;;;;;;;10387075;22;20019;-87
2024/01/08 04:31:31;;;;;;;5.05;3.45;;;;;;;;;;10387294;22;20137;-85
2024/01/08 04:35:35;;;;;;;7.50;4.68;;;;;;;;;;10404288;22;20070;-83
2024/01/08 04:54:37;;;;;;;13.50;6.13;;;;;;;;;;10236339;23;20019;-84
2024/01/08 04:58:40;;;;;;;16.33;9.23;;;;;;;;;;10235951;23;20027;-82
2024/01/08 05:02:43;;;;;;;14.05;6.63;;;;;;;;;;10235959;23;20091;-82
2024/01/08 05:06:46;;;;;;;7.22;5.28;;;;;;;;;;10238492;23;20469;-83
2024/01/08 05:10:51;;;;;;;7.93;4.53;;;;;;;;;;10239548;23;20024;-84
2024/01/08 05:14:55;;;;;;;8.95;4.68;;;;;;;;;;10238758;23;20027;-82
2024/01/08 05:23:58;;;;;;;12.05;5.50;;;;;;;;;;10275312;23;20020;-83
2024/01/08 05:28:06;;;;;;;18.23;8.53;;;;;;;;;;10287906;23;20635;-85
2024/01/08 05:32:08;;;;;;;10.45;4.38;;;;;;;;;;10262101;23;20314;-83
2024/01/08 05:36:11;;;;;;;15.43;5.68;;;;;;;;;;10288789;23;20070;-84
2024/01/08 05:40:17;;;;;;;11.85;6.13;;;;;;;;;;10288217;23;20382;-82
2024/01/08 05:44:21;;;;;;;107.10;56.60;;;;;;;;;;10263057;23;20096;-83
2024/01/08 05:48:24;;;;;;;11.25;4.53;;;;;;;;;;10261600;23;20091;-85
2024/01/08 05:52:27;;;;;;;16.27;5.25;;;;;;;;;;10262212;23;20029;-82
2024/01/08 05:56:31;;;;;;;15.30;6.57;;;;;;;;;;10288863;23;20056;-83
2024/01/08 06:00:41;;;;;;;30.95;8.80;;;;;;;;;;10261891;23;20096;-84
2024/01/08 06:04:46;;;;;;;12.13;5.80;;;;;;;;;;10264598;23;20019;-83
2024/01/08 06:08:49;;;;;;;10.02;4.20;;;;;;;;;;10261761;23;20020;-84
2024/01/08 06:37:02;;;;;;;;;;;;;;;;;;10334507;23;20510;-83
2024/01/08 06:45:12;;;;;;;15.48;6.28;;;;;;;;;;10313111;22;20457;-82
2024/01/08 06:49:16;;;;;;;21.23;8.07;;;;;;;;;;10386516;22;20039;-83
2024/01/08 06:53:20;;;;;;;16.40;5.50;;;;;;;;;;10386237;22;20073;-82
2024/01/08 06:57:23;;;;;;;8.32;4.55;;;;;;;;;;10386378;22;20023;-82
2024/01/08 07:01:27;;;;;;;18.45;8.50;;;;;;;;;;10386533;22;20022;-83
2024/01/08 07:05:31;;;;;;;9.63;5.30;;;;;;;;;;10385526;22;20016;-85
2024/01/08 07:14:54;;;;;;;7.07;3.80;;;;;;;;;;10326402;22;1352330;-83
2024/01/08 07:19:05;;;;;;;13.63;4.75;;;;;;;;;;10409005;22;20024;-87
2024/01/08 07:23:09;;;;;;;18.97;8.20;;;;;;;;;;10405078;22;20015;-87
2024/01/08 07:27:12;;;;;;;13.80;6.82;;;;;;;;;;10387936;22;20023;-83
2024/01/08 07:31:17;;;;;;;19.70;6.85;;;;;;;;;;10387989;22;20047;-88
2024/01/08 07:35:19;;;;;;;11.55;4.55;;;;;;;;;;10388204;22;20047;-84
2024/01/08 07:39:22;;;;;;;14.60;6.55;;;;;;;;;;10388194;22;20016;-82
2024/01/08 07:43:25;;;;;;;50.13;13.90;;;;;;;;;;10388087;22;20016;-87
2024/01/08 07:47:30;;;;;;;16.77;6.90;;;;;;;;;;10388872;22;20317;-84
2024/01/08 07:51:36;;;;;;;13.48;6.13;;;;;;;;;;10362046;22;20016;-83
2024/01/08 07:55:40;;;;;;;12.50;6.00;;;;;;;;;;10362707;22;20051;-89
2024/01/08 07:59:43;;;;;;;12.23;6.18;;;;;;;;;;10388029;22;20030;-86
2024/01/08 08:03:47;;;;;;;10.95;6.00;;;;;;;;;;10388163;22;20079;-86
2024/01/08 08:07:51;;;;;;;11.20;5.32;;;;;;;;;;10387963;22;20043;-86
2024/01/08 08:11:55;;;;;;;8.50;4.40;;;;;;;;;;10388003;22;20098;-86
2024/01/08 08:15:58;;;;;;;12.43;5.13;;;;;;;;;;10389056;22;20020;-84
2024/01/08 08:20:05;;;;;;;15.57;7.40;;;;;;;;;;10360928;22;20016;-85
2024/01/08 08:24:08;;;;;;;7.95;5.05;;;;;;;;;;10387593;22;20015;-88
2024/01/08 08:28:11;;;;;;;6.40;3.75;;;;;;;;;;10387770;22;20020;-88
2024/01/08 08:32:14;;;;;;;45.67;16.33;;;;;;;;;;10388923;22;20332;-89
2024/01/08 08:36:19;;;;;;;10.20;5.10;;;;;;;;;;10388157;22;20094;-86
2024/01/08 08:40:21;;;;;;;15.95;8.73;;;;;;;;;;10389071;22;20078;-80
2024/01/08 08:44:25;;;;;;;10.88;4.93;;;;;;;;;;10391076;22;20020;-87
2024/01/08 08:48:29;;;;;;;14.77;6.75;;;;;;;;;;10364782;22;20347;-81
2024/01/08 08:52:34;;;;;;;8.05;3.53;;;;;;;;;;10363321;22;20019;-82
2024/01/08 08:56:38;;;;;;;15.77;6.82;;;;;;;;;;10364815;22;20022;-83
2024/01/08 09:00:41;;;;;;;16.92;7.32;;;;;;;;;;10390766;22;20020;-82
2024/01/08 09:14:35;;;;;;;16.05;7.15;;;;;;;;;;10310834;23;20079;31
2024/01/08 09:18:41;;;;;;;12.88;7.22;;;;;;;;;;10108558;23;20439;-86
2024/01/08 09:28:15;;;;;;;17.90;9.10;;;;;;;;;;10339008;23;20027;-82
2024/01/08 09:32:20;;;;;;;5.93;4.20;;;;;;;;;;10342146;23;20090;-83
2024/01/08 09:36:23;;;;;;;6.68;4.15;;;;;;;;;;10338308;23;20044;-83
2024/01/08 09:40:27;;;;;;;31.95;11.10;;;;;;;;;;10339006;22;20459;-83
2024/01/08 09:44:35;;;;;;;27.48;12.32;;;;;;;;;;10339189;23;20031;-84
2024/01/08 09:57:30;;;;;;;6.50;4.43;;;;;;;;;;10325673;23;20027;-87
2024/01/08 10:01:33;;;;;;;8.88;6.05;;;;;;;;;;10338914;23;20017;-83
2024/01/08 10:05:36;;;;;;;11.02;5.68;;;;;;;;;;10338778;23;20024;-83
2024/01/08 10:09:39;;;;;;;9.35;4.95;;;;;;;;;;10338675;23;20016;-85
2024/01/08 10:13:46;;;;;;;14.55;6.72;;;;;;;;;;10340419;22;20338;-88
2024/01/08 10:17:50;;;;;;;12.93;5.47;;;;;;;;;;10336836;23;20433;-86
2024/01/08 10:22:10;;;;;;;41.63;15.45;;;;;;;;;;10337007;23;20024;-88
2024/01/08 10:26:16;;;;;;;24.15;9.85;;;;;;;;;;10337613;23;20023;-87
2024/01/08 10:30:21;;;;;;;26.23;10.88;;;;;;;;;;10340210;23;20448;-86
2024/01/08 10:34:25;;;;;;;15.60;6.55;;;;;;;;;;10338746;23;20554;-84
2024/01/08 10:38:31;;;;;;;17.08;7.13;;;;;;;;;;10338784;23;20441;-84
2024/01/08 10:42:35;;;;;;;9.55;3.97;;;;;;;;;;10354451;23;20095;-82
2024/01/08 10:46:55;;;;;;;9.63;4.32;;;;;;;;;;10293859;23;20016;-83
2024/01/08 10:50:59;;;;;;;8.38;4.43;;;;;;;;;;10342446;22;20020;-81
2024/01/08 10:55:04;;;;;;;7.10;4.28;;;;;;;;;;10337953;23;20016;-87
2024/01/08 10:59:08;;;;;;;32.85;9.02;;;;;;;;;;10338700;23;20039;-87
2024/01/08 11:03:13;;;;;;;41.53;15.15;;;;;;;;;;10337564;23;20059;-84
2024/01/08 11:07:17;;;;;;;23.40;10.90;;;;;;;;;;10354653;23;20069;-85
2024/01/08 11:11:21;;;;;;;14.63;8.13;;;;;;;;;;10336778;23;20423;-83
2024/01/08 11:15:26;;;;;;;8.38;4.10;;;;;;;;;;10320255;22;20016;-84
2024/01/08 11:20:23;;;;;;;16.80;8.05;;;;;;;;;;10308892;22;20024;-82
2024/01/08 11:24:59;;;;;;;7.93;4.32;;;;;;;;;;10182523;23;20513;-85
2024/01/08 11:29:04;;;;;;;9.32;5.60;;;;;;;;;;10200742;23;20033;-84
2024/01/08 11:33:31;;;;;;;10.25;4.28;;;;;;;;;;10353380;23;20032;-82
2024/01/08 11:37:36;;;;;;;13.57;6.55;;;;;;;;;;10328238;23;20020;-86
2024/01/08 11:41:41;;;;;;;16.10;6.28;;;;;;;;;;10336551;23;20072;-84
2024/01/08 11:45:44;;;;;;;12.20;6.10;;;;;;;;;;10335687;23;20024;-85
2024/01/08 11:49:51;;;;;;;15.32;5.38;;;;;;;;;;10337427;23;20020;-85
2024/01/08 11:53:56;;;;;;;13.13;5.85;;;;;;;;;;10336304;23;20024;-83
2024/01/08 11:58:00;;;;;;;31.27;13.57;;;;;;;;;;10336855;23;20012;-82
2024/01/08 12:31:18;;;;;;;13.43;6.40;;;;;;;;;;10340640;23;20043;-81
2024/01/08 12:35:21;;;;;;;14.25;7.10;;;;;;;;;;10357431;23;20083;-87
2024/01/08 12:39:25;;;;;;;12.07;6.15;;;;;;;;;;10340001;23;20099;-83
2024/01/08 12:43:29;;;;;;;14.57;8.45;;;;;;;;;;10340364;23;20027;-82
2024/01/08 12:47:34;;;;;;;9.55;4.63;;;;;;;;;;10344160;23;20348;-86
2024/01/08 12:51:36;;;;;;;7.10;4.47;;;;;;;;;;10338093;23;20063;-85
2024/01/08 12:55:40;;;;;;;14.88;6.47;;;;;;;;;;10340091;23;20016;-83
2024/01/08 12:59:55;;;;;;;34.13;13.95;;;;;;;;;;10339744;23;20016;-84
2024/01/08 13:04:00;;;;;;;26.45;8.40;;;;;;;;;;10356379;23;20023;-83
2024/01/08 13:08:04;;;;;;;13.30;4.93;;;;;;;;;;10356822;22;20023;-83
2024/01/08 13:12:17;;;;;;;16.45;6.47;;;;;;;;;;10339461;23;20016;-83
2024/01/08 13:16:19;;;;;;;15.90;4.45;;;;;;;;;;10356020;23;20054;-83
2024/01/08 13:20:24;;;;;;;11.57;5.55;;;;;;;;;;10339360;23;20054;-86
2024/01/08 13:24:27;;;;;;;13.68;7.20;;;;;;;;;;10339635;23;20020;-81
2024/01/08 13:28:30;;;;;;;12.68;5.75;;;;;;;;;;10339174;23;20387;-85
2024/01/08 13:32:33;;;;;;;30.25;9.48;;;;;;;;;;10339782;23;20449;-83
2024/01/08 13:36:38;;;;;;;14.05;6.18;;;;;;;;;;10338915;23;20024;-84
2024/01/08 13:40:41;;;;;;;13.27;6.88;;;;;;;;;;10312236;23;20571;-83
2024/01/08 13:44:44;;;;;;;11.10;5.13;;;;;;;;;;10339840;23;20090;-82
2024/01/08 13:48:47;;;;;;;11.70;5.97;;;;;;;;;;10312711;23;20460;-81
2024/01/08 13:52:52;;;;;;;16.45;8.00;;;;;;;;;;10339036;23;20026;-86
2024/01/08 13:56:55;;;;;;;15.40;7.75;;;;;;;;;;10338617;23;20332;-83
2024/01/08 14:00:58;;;;;;;12.35;6.53;;;;;;;;;;10338776;23;20024;-81
2024/01/08 14:05:00;;;;;;;12.77;6.28;;;;;;;;;;10338651;23;20020;-79
2024/01/08 14:09:05;;;;;;;15.52;5.45;;;;;;;;;;10338404;23;20029;-81
2024/01/08 14:13:08;;;;;;;15.95;6.65;;;;;;;;;;10338611;23;20020;-83
2024/01/08 14:17:12;;;;;;;21.23;9.63;;;;;;;;;;10337828;23;20029;-81
2024/01/08 14:21:15;;;;;;;6.25;4.10;;;;;;;;;;10341819;23;20459;-86
2024/01/08 14:25:20;;;;;;;16.92;8.10;;;;;;;;;;10311144;23;20028;-83
2024/01/08 14:29:23;;;;;;;22.67;10.45;;;;;;;;;;10339745;23;20415;-85
2024/01/08 14:33:25;;;;;;;25.08;10.52;;;;;;;;;;10339685;23;20097;-87
2024/01/08 14:37:30;;;;;;;10.18;4.63;;;;;;;;;;10338454;23;20453;-84
2024/01/08 14:41:37;;;;;;;11.45;5.68;;;;;;;;;;10311882;23;20017;-83
2024/01/08 14:45:42;;;;;;;23.67;9.07;;;;;;;;;;10311669;23;20380;-83
2024/01/08 14:49:46;;;;;;;16.17;7.10;;;;;;;;;;10312046;23;20031;-82
2024/01/08 14:53:49;;;;;;;22.75;10.38;;;;;;;;;;10311565;23;20024;-87
2024/01/08 14:57:57;;;;;;;24.77;7.40;;;;;;;;;;10311439;23;20020;-85
2024/01/08 15:02:00;;;;;;;8.90;5.55;;;;;;;;;;10312849;23;20039;-82
2024/01/08 15:06:02;;;;;;;19.85;7.47;;;;;;;;;;10312227;23;20034;-86
2024/01/08 15:10:08;;;;;;;16.25;6.78;;;;;;;;;;10310961;23;20020;-87
2024/01/08 15:14:14;;;;;;;25.73;11.50;;;;;;;;;;10311393;23;20035;-81
2024/01/08 15:18:17;;;;;;;22.63;10.05;;;;;;;;;;10337870;23;20325;-82
2024/01/08 15:22:21;;;;;;;15.60;6.55;;;;;;;;;;10311084;23;20089;-84
2024/01/08 15:26:24;;;;;;;10.00;6.07;;;;;;;;;;10339401;22;20383;-83
2024/01/08 15:30:29;;;;;;;23.35;10.40;;;;;;;;;;10388250;22;20091;-86
2024/01/08 15:34:32;;;;;;;30.45;12.25;;;;;;;;;;10361515;22;20432;-85
2024/01/08 15:38:36;;;;;;;29.65;11.98;;;;;;;;;;10364988;22;20019;-81
2024/01/08 15:42:39;;;;;;;17.88;6.45;;;;;;;;;;10361223;22;20019;-85
2024/01/08 15:46:47;;;;;;;29.50;11.77;;;;;;;;;;10361861;22;20129;-81
2024/01/08 15:50:50;;;;;;;22.50;9.52;;;;;;;;;;10361506;22;20444;-84
2024/01/08 15:54:54;;;;;;;25.25;10.30;;;;;;;;;;10360832;22;20016;-84
2024/01/08 15:58:57;;;;;;;25.80;10.02;;;;;;;;;;10360993;22;20023;-84
2024/01/08 16:03:02;;;;;;;26.40;10.02;;;;;;;;;;10387730;22;20023;-84
2024/01/08 16:07:05;;;;;;;32.00;12.73;;;;;;;;;;10361025;22;20027;-83
2024/01/08 16:11:11;;;;;;;32.97;12.25;;;;;;;;;;10387782;22;20074;-84
2024/01/08 16:15:14;;;;;;;70.20;24.55;;;;;;;;;;10360864;22;20023;-84
2024/01/08 16:19:22;;;;;;;39.38;14.38;;;;;;;;;;10364864;22;20024;-85
2024/01/08 16:23:25;;;;;;;49.38;16.90;;;;;;;;;;10361208;22;20391;-85
2024/01/08 16:27:28;;;;;;;48.45;17.13;;;;;;;;;;10387684;22;20024;-83
2024/01/08 16:31:31;;;;;;;52.22;16.27;;;;;;;;;;10387112;22;20023;-87
2024/01/08 16:35:36;;;;;;;48.10;16.35;;;;;;;;;;10387440;22;20020;-83
2024/01/08 16:39:39;;;;;;;42.78;16.33;;;;;;;;;;10387527;22;20407;-84
2024/01/08 16:52:30;;;;;;;53.35;17.35;;;;;;;;;;10243496;23;20052;-87
2024/01/08 16:56:34;;;;;;;54.92;21.42;;;;;;;;;;10305807;23;20370;-84
2024/01/08 17:00:37;;;;;;;37.63;14.00;;;;;;;;;;10253674;23;20144;-85
2024/01/08 17:13:20;;;;;;;55.15;20.83;;;;;;;;;;10239792;23;20058;-85
2024/01/08 17:17:23;;;;;;;41.45;14.07;;;;;;;;;;10239510;23;20017;-82
2024/01/08 17:21:26;;;;;;;37.25;13.85;;;;;;;;;;10239690;23;20017;-83
2024/01/08 17:29:43;;;;;;;38.17;14.32;;;;;;;;;;10244714;23;20047;-85
2024/01/08 17:33:47;;;;;;;215.90;58.97;;;;;;;;;;10355869;23;20067;-81
2024/01/08 17:37:50;;;;;;;152.88;45.25;;;;;;;;;;10339255;23;20016;-83
2024/01/08 17:41:53;;;;;;;108.85;36.33;;;;;;;;;;10339165;23;20079;-85
2024/01/08 17:50:12;;;;;;;106.60;34.28;;;;;;;;;;10321258;22;20048;-82
2024/01/08 17:54:18;;;;;;;127.78;38.40;;;;;;;;;;10406592;22;20510;-85
2024/01/08 17:58:21;;;;;;;188.75;57.85;;;;;;;;;;10406569;22;20440;-84
2024/01/08 18:02:23;;;;;;;161.02;48.47;;;;;;;;;;10362419;22;20024;-84
2024/01/08 18:12:26;;;;;;;215.23;55.97;;;;;;;;;;10351529;22;20035;-83
2024/01/08 18:16:31;;;;;;;163.10;48.78;;;;;;;;;;10389209;22;20447;-82
2024/01/08 18:20:34;;;;;;;185.52;53.90;;;;;;;;;;10389034;22;20022;-83
2024/01/08 18:24:37;;;;;;;202.23;60.58;;;;;;;;;;10389261;22;20412;-83
2024/01/08 18:28:40;;;;;;;262.38;77.70;;;;;;;;;;10389426;22;20019;-81
2024/01/08 18:32:45;;;;;;;275.05;80.68;;;;;;;;;;10389858;22;20043;-85
2024/01/08 18:36:48;;;;;;;269.75;77.55;;;;;;;;;;10362364;22;20016;-82
2024/01/08 18:40:52;;;;;;;293.25;83.22;;;;;;;;;;10362069;22;20102;-83
2024/01/08 18:44:56;;;;;;;276.70;77.85;;;;;;;;;;10360143;22;20427;-83
2024/01/08 18:49:05;;;;;;;187.55;53.97;;;;;;;;;;10359504;22;20061;-83
2024/01/08 18:53:09;;;;;;;406.70;105.90;;;;;;;;;;10361092;22;20030;-84
2024/01/08 18:57:12;;;;;;;211.40;57.22;;;;;;;;;;10361329;22;20075;-84
2024/01/08 19:01:15;;;;;;;78.50;26.45;;;;;;;;;;10388349;22;20015;-84
2024/01/08 19:05:22;;;;;;;60.60;21.25;;;;;;;;;;10361812;22;20023;-86
2024/01/08 19:09:26;;;;;;;45.08;17.17;;;;;;;;;;10405496;22;20027;-84
2024/01/08 19:13:34;;;;;;;49.05;17.88;;;;;;;;;;10361506;22;20470;-85
2024/01/08 19:17:40;;;;;;;49.50;16.85;;;;;;;;;;10361524;22;20583;-85
2024/01/08 19:21:48;;;;;;;49.45;17.38;;;;;;;;;;10361741;22;20015;-84
2024/01/08 19:25:53;;;;;;;39.60;16.05;;;;;;;;;;10361507;22;20027;-86
2024/01/08 19:29:57;;;;;;;71.80;25.60;;;;;;;;;;10361567;22;20026;-84
2024/01/08 19:34:01;;;;;;;192.93;56.30;;;;;;;;;;10361161;22;20019;-85
2024/01/08 19:38:09;;;;;;;566.45;173.75;;;;;;;;;;10255362;23;20048;-83
2024/01/08 19:42:12;;;;;;;441.35;126.40;;;;;;;;;;10304308;23;20095;-86
2024/01/08 19:46:15;;;;;;;169.10;45.83;;;;;;;;;;10261137;23;20017;-84
2024/01/08 19:50:19;;;;;;;402.80;111.00;;;;;;;;;;10260983;23;20025;-86
2024/01/08 19:54:23;;;;;;;71.00;23.38;;;;;;;;;;10286893;23;20040;-85
2024/01/08 19:58:27;;;;;;;39.17;14.88;;;;;;;;;;10286716;23;20393;-86
2024/01/08 20:02:30;;;;;;;51.97;18.05;;;;;;;;;;10286873;23;20091;-84
2024/01/08 20:06:33;;;;;;;46.83;18.20;;;;;;;;;;10260549;23;20016;-82
2024/01/08 20:10:38;;;;;;;47.55;17.83;;;;;;;;;;10275175;23;20013;-82
2024/01/08 20:14:42;;;;;;;36.53;15.73;;;;;;;;;;10353858;23;20526;-85
2024/01/08 20:18:46;;;;;;;150.27;41.30;;;;;;;;;;10335038;23;20036;-83
2024/01/08 20:27:01;;;;;;;349.27;97.90;;;;;;;;;;10295622;23;20056;-85
2024/01/08 20:31:05;;;;;;;214.77;57.00;;;;;;;;;;10353706;23;20016;-86
2024/01/08 20:35:09;;;;;;;152.18;44.25;;;;;;;;;;10388096;22;20098;-85
2024/01/08 20:39:13;;;;;;;116.30;35.08;;;;;;;;;;10390660;22;20030;-84
2024/01/08 20:43:21;;;;;;;109.57;32.10;;;;;;;;;;10363958;22;20098;-85
2024/01/08 20:47:24;;;;;;;152.60;37.85;;;;;;;;;;10363758;22;20023;-84
2024/01/08 20:51:28;;;;;;;178.20;47.25;;;;;;;;;;10364253;22;20318;-83
2024/01/08 20:55:32;;;;;;;135.68;36.47;;;;;;;;;;10364012;22;20028;-82
2024/01/08 20:59:38;;;;;;;108.93;31.77;;;;;;;;;;10363875;22;20019;-83
2024/01/08 21:03:41;;;;;;;75.97;25.92;;;;;;;;;;10407242;22;20019;-84
2024/01/08 21:07:44;;;;;;;79.70;27.08;;;;;;;;;;10363729;22;20020;-84
2024/01/08 21:11:47;;;;;;;62.03;21.52;;;;;;;;;;10390564;22;20095;-84
2024/01/08 21:16:04;;;;;;;79.45;23.25;;;;;;;;;;10390967;22;20023;-84
2024/01/08 21:20:08;;;;;;;99.50;28.60;;;;;;;;;;10407163;22;20094;-85
2024/01/08 21:34:33;;;;;;;63.30;20.33;;;;;;;;;;10339540;23;20062;-86
2024/01/08 21:38:37;;;;;;;116.75;29.02;;;;;;;;;;10339764;23;20441;-85
2024/01/08 21:42:40;;;;;;;98.45;29.38;;;;;;;;;;10338983;23;20016;-83
2024/01/08 21:46:45;;;;;;;114.97;32.08;;;;;;;;;;10337832;23;20016;-82
2024/01/08 21:55:40;;;;;;;67.40;22.88;;;;;;;;;;10331680;23;20533;-84
2024/01/08 21:59:43;;;;;;;42.67;14.55;;;;;;;;;;10338450;23;20095;-83
2024/01/08 22:03:47;;;;;;;61.60;20.35;;;;;;;;;;10338672;23;20621;-82
2024/01/08 22:16:13;;;;;;;67.53;21.85;;;;;;;;;;10263963;23;20374;-83
2024/01/08 22:20:16;;;;;;;56.92;20.42;;;;;;;;;;10353667;23;20023;-86
2024/01/08 22:24:19;;;;;;;54.38;21.10;;;;;;;;;;10338344;23;20062;-82
2024/01/08 22:33:08;;;;;;;96.65;32.33;;;;;;;;;;10309042;23;20055;-85
2024/01/08 22:37:11;;;;;;;120.50;34.60;;;;;;;;;;10338655;23;20512;-86
2024/01/08 22:41:15;;;;;;;95.60;28.52;;;;;;;;;;10338205;23;20016;-85
2024/01/08 22:45:18;;;;;;;71.43;25.60;;;;;;;;;;10338218;23;20027;-84
2024/01/08 22:49:22;;;;;;;118.82;38.17;;;;;;;;;;10338620;23;20050;-83
2024/01/08 22:53:25;;;;;;;112.25;31.88;;;;;;;;;;10337937;23;20015;-85
2024/01/08 22:57:28;;;;;;;78.88;26.00;;;;;;;;;;10337830;23;20016;-84
2024/01/08 23:01:31;;;;;;;71.38;24.13;;;;;;;;;;10336059;23;20024;-82
2024/01/08 23:05:39;;;;;;;73.28;27.13;;;;;;;;;;10336294;23;20032;-84
2024/01/08 23:09:41;;;;;;;71.63;22.63;;;;;;;;;;10336900;23;20031;-84
2024/01/08 23:13:44;;;;;;;67.90;24.92;;;;;;;;;;10336471;23;20317;-85
2024/01/08 23:17:47;;;;;;;105.57;30.85;;;;;;;;;;10337577;23;20027;-84
2024/01/08 23:21:53;;;;;;;148.45;44.08;;;;;;;;;;10335845;23;20087;-83
2024/01/08 23:25:56;;;;;;;177.95;46.17;;;;;;;;;;10337322;23;20388;-85
2024/01/08 23:30:00;;;;;;;125.63;37.83;;;;;;;;;;10337303;23;20516;-84
2024/01/08 23:34:03;;;;;;;112.05;31.48;;;;;;;;;;10337946;23;20333;-84
2024/01/08 23:38:07;;;;;;;167.30;50.53;;;;;;;;;;10337343;23;20070;-85
2024/01/08 23:42:11;;;;;;;146.00;42.35;;;;;;;;;;10336869;23;20023;-84
2024/01/08 23:46:14;;;;;;;141.50;40.85;;;;;;;;;;10337111;23;20027;-85
2024/01/08 23:50:17;;;;;;;161.32;40.20;;;;;;;;;;10337021;22;20508;-84
